Tümü
Avenger Fld Airport (Sweetwater, TX) SWW Hava Durumu
|
Sweetwater, TX (KSWW)
Açık
Rüzgârlı |
|
35 °C |
There is no TAF data available at SWW or any nearby airports.
Yakın zamandaki SWW METAR geçmişi
| Date | Time (CDT) | Flight Rules | Wind Dir. | Speed | Type | Height AGL (ft) | Visibility | Temp (°C) | Temp (°F) | Dew Point (°C) | Dew Point (°F) | Rel. Humid. | Pressure | Density Altitude | Remarks |
|---|---|---|---|---|---|---|---|---|---|---|---|---|---|---|---|
| 31-Ağu | 18:15 | VFR | 120° | 12 kt | 10 miles | 35° | 95° | 11° | 51° | 24% | 29.99 in Hg | 5.184 ft | Wind gusting to 17 KT | ||
| 31-Ağu | 17:55 | VFR | 120° | 11 kt | 10 miles | 35° | 95° | 11° | 51° | 23% | 29.99 in Hg | 5.184 ft | |||
| 31-Ağu | 17:35 | VFR | 100° | 10 kt | 10 miles | 36° | 96° | 11° | 51° | 22% | 30.00 in Hg | 5.294 ft | |||
| 31-Ağu | 17:15 | VFR | 150° | 6 kt | 10 miles | 36° | 96° | 11° | 51° | 22% | 30.00 in Hg | 5.294 ft | |||
| 31-Ağu | 16:55 | VFR | 150° | 6 kt | 10 miles | 37° | 98° | 10° | 50° | 21% | 30.01 in Hg | 5.404 ft | Wind gusting to 14 KT | ||
| 31-Ağu | 16:15 | VFR | 90° | 10 kt | 10 miles | 38° | 100° | 10° | 50° | 19% | 30.02 in Hg | 5.514 ft | |||
| 31-Ağu | 15:55 | VFR | 120° | 7 kt | 10 miles | 38° | 100° | 10° | 50° | 18% | 30.03 in Hg | 5.504 ft | Wind gusting to 16 KT | ||
| 31-Ağu | 15:35 | VFR | 110° | 7 kt | 10 miles | 37° | 98° | 10° | 50° | 20% | 30.04 in Hg | 5.374 ft | |||
| 31-Ağu | 15:15 | VFR | 160° | 7 kt | 10 miles | 38° | 100° | 10° | 50° | 20% | 30.05 in Hg | 5.484 ft | Wind gusting to 16 KT | ||
| 31-Ağu | 14:55 | VFR | 150° | 8 kt | 10 miles | 36° | 96° | 12° | 53° | 23% | 30.05 in Hg | 5.244 ft | |||
| 31-Ağu | 14:35 | VFR | 140° | 8 kt | 10 miles | 37° | 98° | 12° | 53° | 22% | 30.06 in Hg | 5.354 ft | Wind gusting to 14 KT | ||
| 31-Ağu | 14:15 | VFR | 100° | 8 kt | 10 miles | 36° | 96° | 11° | 51° | 23% | 30.07 in Hg | 5.224 ft | |||
| 31-Ağu | 13:55 | VFR | 150° | 13 kt | 10 miles | 37° | 98° | 12° | 53° | 22% | 30.07 in Hg | 5.344 ft | Wind gusting to 19 KT | ||
| 31-Ağu | 13:35 | VFR | 140° | 10 kt | 10 miles | 36° | 96° | 12° | 53° | 23% | 30.08 in Hg | 5.214 ft | Wind gusting to 17 KT | ||
| 31-Ağu | 13:15 | VFR | 70° | 11 kt | 10 miles | 36° | 96° | 12° | 53° | 25% | 30.09 in Hg | 5.204 ft | |||
| 31-Ağu | 12:55 | VFR | 170° | 5 kt | 10 miles | 37° | 98° | 12° | 53° | 22% | 30.09 in Hg | 5.324 ft | Wind gusting to 15 KT | ||
| 31-Ağu | 12:35 | VFR | 140° | 11 kt | 10 miles | 35° | 95° | 14° | 57° | 28% | 30.09 in Hg | 5.084 ft | Wind gusting to 15 KT | ||
| 31-Ağu | 12:15 | VFR | 190° | 8 kt | 10 miles | 35° | 95° | 15° | 59° | 30% | 30.10 in Hg | 5.074 ft | |||
| 31-Ağu | 11:55 | VFR | 200° | 8 kt | 10 miles | 34° | 93° | 16° | 60° | 34% | 30.11 in Hg | 4.944 ft | Wind gusting to 14 KT | ||
| 31-Ağu | 11:35 | VFR | 220° | 10 kt | 10 miles | 33° | 91° | 17° | 62° | 38% | 30.11 in Hg | 4.824 ft | |||
| 31-Ağu | 11:15 | VFR | 210° | 12 kt | 10 miles | 32° | 89° | 18° | 64° | 42% | 30.10 in Hg | 4.714 ft | Wind gusting to 15 KT | ||
| 31-Ağu | 10:55 | VFR | 210° | 10 kt | 10 miles | 32° | 89° | 18° | 64° | 44% | 30.10 in Hg | 4.714 ft | |||
| 31-Ağu | 10:15 | VFR | 190° | 14 kt | 10 miles | 30° | 86° | 18° | 64° | 50% | 30.10 in Hg | 4.474 ft | |||
| 31-Ağu | 09:55 | VFR | 210° | 15 kt | 10 miles | 30° | 86° | 19° | 66° | 52% | 30.09 in Hg | 4.484 ft | Wind gusting to 19 KT |
Giriş
| Tarayıcınız desteklenmiyor. tarayıcınızı yükseltin |
